createdAt,value
2022-10-07T00:01:51.130Z,100.00
2022-10-07T00:04:18.305Z,100.00
2022-10-07T00:06:46.007Z,100.00
2022-10-07T00:09:16.183Z,100.00
2022-10-07T00:11:43.183Z,100.00
2022-10-07T00:14:12.225Z,100.00
2022-10-07T00:16:41.216Z,100.00
2022-10-07T00:19:14.186Z,100.00
2022-10-07T00:22:14.196Z,100.00
2022-10-07T00:24:41.006Z,100.00
2022-10-07T00:27:07.971Z,100.00
2022-10-07T00:29:44.259Z,100.00
2022-10-07T00:32:13.198Z,100.00
2022-10-07T00:34:45.203Z,100.00
2022-10-07T00:37:23.024Z,100.00
2022-10-07T00:39:50.011Z,100.00
2022-10-07T00:42:18.229Z,100.00
2022-10-07T00:44:48.953Z,100.00
2022-10-07T00:47:34.371Z,100.00
2022-10-07T00:50:08.579Z,100.00
2022-10-07T00:52:47.002Z,100.00
2022-10-07T00:55:16.813Z,100.00
2022-10-07T00:57:45.273Z,100.00
2022-10-07T01:00:16.453Z,100.00
2022-10-07T01:02:43.339Z,100.00
2022-10-07T01:05:10.925Z,100.00
2022-10-07T01:07:38.836Z,100.00
2022-10-07T01:10:06.466Z,100.00
2022-10-07T01:12:43.900Z,100.00
2022-10-07T01:15:10.745Z,100.00
2022-10-07T01:17:41.945Z,100.00
2022-10-07T01:20:28.698Z,100.00
2022-10-07T01:23:21.798Z,100.00
2022-10-07T01:26:10.563Z,100.00
2022-10-07T01:28:47.087Z,100.00
2022-10-07T01:31:17.592Z,100.00
2022-10-07T01:33:46.007Z,100.00
2022-10-07T01:36:24.136Z,100.00
2022-10-07T01:38:57.384Z,100.00
2022-10-07T01:41:25.595Z,100.00
2022-10-07T01:43:55.516Z,100.00
2022-10-07T01:46:36.459Z,100.00
2022-10-07T01:49:05.050Z,100.00
2022-10-07T01:51:40.763Z,100.00
2022-10-07T01:54:10.644Z,100.00
2022-10-07T01:57:02.382Z,100.00
2022-10-07T01:59:30.456Z,100.00
2022-10-07T02:02:12.491Z,100.00
2022-10-07T02:04:59.456Z,100.00
2022-10-07T02:07:41.790Z,100.00
2022-10-07T02:10:32.103Z,100.00
2022-10-07T02:12:59.556Z,100.00
2022-10-07T02:15:45.196Z,100.00
2022-10-07T02:18:15.722Z,100.00
2022-10-07T02:20:52.142Z,100.00
2022-10-07T02:23:20.558Z,100.00
2022-10-07T02:26:00.626Z,100.00
2022-10-07T02:28:28.383Z,100.00
2022-10-07T02:31:07.623Z,100.00
2022-10-07T02:33:54.507Z,100.00
2022-10-07T02:36:36.540Z,100.00
2022-10-07T02:39:04.121Z,100.00
2022-10-07T02:41:52.439Z,100.00
2022-10-07T02:44:27.218Z,100.00
2022-10-07T02:47:14.447Z,100.00
2022-10-07T02:49:49.706Z,100.00
2022-10-07T02:52:18.840Z,100.00
2022-10-07T02:55:00.700Z,100.00
2022-10-07T02:57:30.674Z,100.00
2022-10-07T02:59:59.069Z,100.00
2022-10-07T03:02:46.837Z,100.00
2022-10-07T03:05:28.849Z,100.00
2022-10-07T03:08:19.927Z,100.00
2022-10-07T03:10:54.995Z,100.00
2022-10-07T03:13:26.178Z,100.00
2022-10-07T03:15:54.041Z,100.00
2022-10-07T03:18:39.311Z,100.00
2022-10-07T03:21:09.089Z,100.00
2022-10-07T03:23:43.734Z,100.00
2022-10-07T03:26:10.682Z,100.00
2022-10-07T03:28:44.264Z,100.00
2022-10-07T03:31:12.209Z,100.00
2022-10-07T03:33:42.115Z,100.00
2022-10-07T03:36:09.305Z,100.00
2022-10-07T03:38:49.584Z,100.00
2022-10-07T03:41:16.883Z,100.00
2022-10-07T03:43:46.888Z,100.00
2022-10-07T03:46:20.780Z,100.00
2022-10-07T03:48:51.853Z,100.00
2022-10-07T03:51:18.849Z,100.00
2022-10-07T03:53:57.705Z,100.00
2022-10-07T03:56:25.729Z,100.00
2022-10-07T03:59:00.076Z,100.00
2022-10-07T04:01:27.012Z,100.00
2022-10-07T04:03:58.018Z,100.00
2022-10-07T04:06:24.965Z,100.00
2022-10-07T04:09:00.836Z,100.00
2022-10-07T04:11:27.767Z,100.00
2022-10-07T04:13:55.885Z,100.00
2022-10-07T04:16:23.318Z,100.00
2022-10-07T04:18:50.243Z,100.00
2022-10-07T04:21:17.452Z,100.00
2022-10-07T04:23:46.310Z,100.00
2022-10-07T04:26:14.239Z,100.00
2022-10-07T04:28:41.378Z,100.00
2022-10-07T04:31:09.366Z,100.00
2022-10-07T04:33:40.348Z,100.00
2022-10-07T04:36:09.517Z,100.00
2022-10-07T04:38:36.543Z,100.00
2022-10-07T04:41:05.586Z,100.00
2022-10-07T04:43:34.285Z,100.00
2022-10-07T04:46:04.236Z,100.00
2022-10-07T04:48:34.723Z,100.00
2022-10-07T04:51:05.997Z,100.00
2022-10-07T04:53:34.347Z,100.00
2022-10-07T04:56:02.231Z,100.00
2022-10-07T04:58:31.831Z,100.00
2022-10-07T05:00:59.644Z,100.00
2022-10-07T05:03:27.754Z,100.00
2022-10-07T05:05:56.859Z,100.00
2022-10-07T05:08:29.993Z,100.00
2022-10-07T05:10:57.481Z,100.00
2022-10-07T05:13:26.316Z,100.00
2022-10-07T05:15:53.120Z,100.00
2022-10-07T05:18:21.497Z,100.00
2022-10-07T05:20:49.912Z,100.00
2022-10-07T05:23:24.417Z,100.00
2022-10-07T05:26:04.962Z,100.00
2022-10-07T05:28:40.430Z,100.00
2022-10-07T05:31:09.068Z,100.00
2022-10-07T05:33:38.089Z,100.00
2022-10-07T05:36:10.152Z,100.00
2022-10-07T05:38:43.525Z,100.00
2022-10-07T05:41:11.412Z,100.00
2022-10-07T05:43:46.933Z,100.00
2022-10-07T05:46:15.355Z,100.00
2022-10-07T05:48:46.286Z,100.00
2022-10-07T05:51:27.396Z,100.00
2022-10-07T05:53:57.236Z,100.00
2022-10-07T05:56:37.055Z,100.00
2022-10-07T05:59:05.139Z,100.00
2022-10-07T06:01:33.225Z,100.00
2022-10-07T06:04:00.216Z,100.00
2022-10-07T06:06:27.115Z,100.00
2022-10-07T06:09:23.664Z,100.00
2022-10-07T06:12:09.423Z,100.00
2022-10-07T06:14:43.135Z,100.00
2022-10-07T06:17:12.085Z,100.00
2022-10-07T06:19:40.031Z,100.00
2022-10-07T06:22:15.137Z,100.00
2022-10-07T06:24:42.086Z,100.00
2022-10-07T06:27:12.001Z,100.00
2022-10-07T06:29:48.118Z,100.00
2022-10-07T06:32:14.876Z,100.00
2022-10-07T06:35:09.163Z,100.00
2022-10-07T06:37:47.452Z,100.00
2022-10-07T06:40:16.861Z,100.00
2022-10-07T06:42:43.769Z,100.00
2022-10-07T06:45:12.788Z,100.00
2022-10-07T06:47:39.644Z,100.00
2022-10-07T06:50:07.808Z,100.00
2022-10-07T06:52:38.846Z,100.00
2022-10-07T06:55:15.255Z,100.00
2022-10-07T06:57:46.464Z,100.00
2022-10-07T07:00:20.795Z,100.00
2022-10-07T07:02:48.749Z,100.00
2022-10-07T07:05:17.737Z,100.00
2022-10-07T07:07:45.762Z,100.00
2022-10-07T07:10:12.899Z,100.00
2022-10-07T07:12:41.089Z,100.00
2022-10-07T07:15:21.807Z,100.00
2022-10-07T07:17:50.245Z,100.00
2022-10-07T07:20:18.186Z,100.00
2022-10-07T07:22:47.047Z,100.00
2022-10-07T07:25:14.805Z,100.00
2022-10-07T07:28:13.489Z,100.00
2022-10-07T07:30:44.530Z,100.00
2022-10-07T07:33:13.355Z,100.00
2022-10-07T07:35:45.699Z,100.00
2022-10-07T07:38:15.820Z,100.00
2022-10-07T07:40:42.545Z,100.00
2022-10-07T07:43:20.545Z,100.00
2022-10-07T07:45:48.619Z,100.00
2022-10-07T07:48:17.565Z,100.00
2022-10-07T07:51:00.812Z,100.00
2022-10-07T07:53:27.768Z,100.00
2022-10-07T07:56:09.300Z,100.00
2022-10-07T07:58:45.453Z,100.00
2022-10-07T08:01:14.423Z,100.00
2022-10-07T08:03:46.697Z,100.00
2022-10-07T08:06:15.537Z,98.73
2022-10-07T08:08:43.453Z,97.12
2022-10-07T08:11:11.276Z,96.68
2022-10-07T08:13:47.339Z,94.84
2022-10-07T08:16:16.146Z,92.45
2022-10-07T08:18:44.623Z,90.54
2022-10-07T08:21:11.891Z,91.02
2022-10-07T08:23:40.231Z,89.59
2022-10-07T08:26:08.720Z,89.38
2022-10-07T08:28:42.703Z,88.72
2022-10-07T08:31:15.705Z,88.17
2022-10-07T08:33:45.178Z,86.23
2022-10-07T08:36:14.429Z,84.84
2022-10-07T08:38:52.993Z,85.67
2022-10-07T08:41:40.047Z,83.87
2022-10-07T08:44:27.299Z,84.13
2022-10-07T08:47:07.609Z,84.05
2022-10-07T08:49:44.306Z,83.60
2022-10-07T08:52:21.218Z,84.31
2022-10-07T08:54:49.713Z,83.05
2022-10-07T08:57:34.953Z,82.50
2022-10-07T09:00:07.268Z,81.88
2022-10-07T09:02:54.114Z,80.21
2022-10-07T09:05:21.056Z,77.82
2022-10-07T09:07:54.348Z,72.39
2022-10-07T09:10:25.340Z,68.11
2022-10-07T09:12:59.262Z,65.89
2022-10-07T09:15:41.672Z,65.26
2022-10-07T09:18:36.547Z,65.35
2022-10-07T09:21:08.518Z,67.20
2022-10-07T09:23:43.661Z,67.22
2022-10-07T09:26:12.168Z,66.49
2022-10-07T09:28:40.369Z,64.04
2022-10-07T09:31:08.860Z,63.96
2022-10-07T09:33:42.615Z,62.86
2022-10-07T09:36:11.654Z,61.44
2022-10-07T09:38:42.117Z,61.14
2022-10-07T09:41:17.657Z,61.94
2022-10-07T09:43:50.858Z,64.69
2022-10-07T09:46:42.944Z,63.85
2022-10-07T09:49:27.418Z,60.52
2022-10-07T09:52:02.448Z,58.43
2022-10-07T09:54:30.622Z,56.86
2022-10-07T09:56:58.614Z,55.46
2022-10-07T09:59:32.334Z,53.99
2022-10-07T10:02:10.165Z,55.40
2022-10-07T10:04:38.235Z,55.95
2022-10-07T10:07:06.370Z,54.55
2022-10-07T10:09:40.316Z,53.28
2022-10-07T10:12:20.450Z,52.86
2022-10-07T10:14:48.274Z,55.15
2022-10-07T10:17:31.636Z,54.91
2022-10-07T10:20:22.984Z,53.44
2022-10-07T10:23:15.206Z,53.35
2022-10-07T10:26:07.878Z,50.20
2022-10-07T10:28:45.300Z,47.54
2022-10-07T10:31:29.672Z,49.31
2022-10-07T10:34:02.265Z,49.79
2022-10-07T10:36:33.211Z,49.31
2022-10-07T10:39:23.412Z,50.38
2022-10-07T10:41:52.818Z,52.75
2022-10-07T10:44:32.450Z,53.81
2022-10-07T10:47:04.189Z,49.53
2022-10-07T10:49:38.140Z,48.29
2022-10-07T10:52:13.754Z,47.91
2022-10-07T10:55:01.646Z,48.38
2022-10-07T10:57:45.496Z,47.24
2022-10-07T11:00:25.030Z,48.51
2022-10-07T11:02:52.977Z,46.73
2022-10-07T11:05:48.132Z,47.14
2022-10-07T11:08:27.771Z,46.92
2022-10-07T11:10:58.806Z,48.13
2022-10-07T11:13:27.723Z,50.33
2022-10-07T11:15:59.957Z,50.67
2022-10-07T11:18:31.830Z,51.98
2022-10-07T11:20:59.970Z,49.86
2022-10-07T11:23:32.812Z,48.42
2022-10-07T11:26:19.247Z,47.01
2022-10-07T11:28:46.851Z,47.59
2022-10-07T11:31:20.437Z,47.31
2022-10-07T11:33:48.329Z,47.66
2022-10-07T11:36:37.802Z,46.67
2022-10-07T11:39:05.709Z,46.16
2022-10-07T11:41:35.412Z,47.08
2022-10-07T11:44:19.035Z,49.52
2022-10-07T11:46:46.551Z,48.06
2022-10-07T11:49:13.391Z,47.17
2022-10-07T11:52:00.745Z,46.18
2022-10-07T11:54:32.066Z,44.03
2022-10-07T11:57:17.436Z,44.53
2022-10-07T11:59:48.271Z,45.75
2022-10-07T12:02:38.835Z,46.98
2022-10-07T12:05:06.079Z,45.71
2022-10-07T12:07:36.553Z,45.91
2022-10-07T12:10:18.588Z,46.81
2022-10-07T12:13:04.222Z,45.49
2022-10-07T12:15:33.166Z,46.08
2022-10-07T12:18:03.050Z,44.20
2022-10-07T12:20:58.052Z,46.23
2022-10-07T12:23:31.191Z,47.71
2022-10-07T12:26:03.345Z,47.34
2022-10-07T12:28:34.744Z,46.50
2022-10-07T12:31:01.740Z,44.04
2022-10-07T12:33:43.717Z,43.63
2022-10-07T12:36:38.386Z,42.39
2022-10-07T12:39:10.167Z,46.38
2022-10-07T12:41:40.593Z,49.02
2022-10-07T12:44:08.663Z,51.53
2022-10-07T12:46:56.857Z,49.73
2022-10-07T12:49:52.355Z,49.93
2022-10-07T12:52:24.682Z,50.16
2022-10-07T12:55:01.730Z,53.05
2022-10-07T12:57:33.104Z,51.59
2022-10-07T13:00:08.277Z,51.39
2022-10-07T13:02:55.012Z,48.37
2022-10-07T13:05:40.672Z,48.37
2022-10-07T13:08:07.493Z,49.35
2022-10-07T13:10:41.417Z,49.03
2022-10-07T13:13:27.547Z,49.88
2022-10-07T13:15:58.417Z,48.43
2022-10-07T13:18:45.388Z,48.61
2022-10-07T13:21:13.387Z,48.29
2022-10-07T13:23:49.409Z,47.33
2022-10-07T13:26:16.353Z,46.73
2022-10-07T13:29:08.064Z,45.89
2022-10-07T13:31:37.229Z,44.85
2022-10-07T13:34:15.631Z,43.95
2022-10-07T13:36:44.529Z,44.12
2022-10-07T13:39:31.521Z,43.73
2022-10-07T13:41:59.830Z,45.51
2022-10-07T13:44:30.671Z,44.61
2022-10-07T13:47:02.473Z,47.72
2022-10-07T13:49:30.954Z,47.35
2022-10-07T13:52:00.245Z,47.02
2022-10-07T13:54:28.210Z,48.11
2022-10-07T13:56:58.252Z,49.28
2022-10-07T13:59:29.654Z,47.53
2022-10-07T14:01:58.674Z,45.94
2022-10-07T14:04:34.901Z,44.80
2022-10-07T14:07:23.622Z,45.15
2022-10-07T14:10:10.091Z,45.58
2022-10-07T14:12:41.000Z,45.12
2022-10-07T14:15:41.543Z,45.63
2022-10-07T14:18:11.536Z,46.51
2022-10-07T14:20:58.219Z,46.53
2022-10-07T14:23:47.309Z,47.57
2022-10-07T14:26:39.486Z,45.76
2022-10-07T14:29:22.731Z,45.28
2022-10-07T14:32:19.077Z,44.40
2022-10-07T14:35:04.505Z,45.01
2022-10-07T14:37:32.018Z,44.71
2022-10-07T14:40:16.258Z,44.29
2022-10-07T14:42:43.513Z,44.40
2022-10-07T14:45:15.320Z,43.78
2022-10-07T14:47:46.429Z,42.88
2022-10-07T14:50:13.887Z,43.57
2022-10-07T14:52:52.310Z,44.01
2022-10-07T14:55:23.409Z,46.12
2022-10-07T14:57:51.330Z,47.64
2022-10-07T15:00:21.046Z,47.70
2022-10-07T15:02:53.518Z,46.58
2022-10-07T15:05:21.114Z,47.98
2022-10-07T15:07:50.230Z,48.63
2022-10-07T15:10:21.826Z,51.03
2022-10-07T15:12:49.915Z,52.50
2022-10-07T15:15:22.792Z,53.87
2022-10-07T15:17:50.578Z,54.71
2022-10-07T15:20:17.735Z,55.27
2022-10-07T15:22:46.129Z,56.69
2022-10-07T15:25:15.690Z,56.23
2022-10-07T15:27:42.947Z,57.44
2022-10-07T15:30:11.250Z,57.65
2022-10-07T15:32:39.226Z,57.71
2022-10-07T15:35:06.323Z,57.88
2022-10-07T15:37:34.505Z,59.63
2022-10-07T15:40:03.394Z,60.25
2022-10-07T15:42:30.376Z,61.55
2022-10-07T15:44:58.370Z,61.88
2022-10-07T15:47:39.658Z,62.40
2022-10-07T15:50:07.162Z,63.29
2022-10-07T15:52:34.098Z,64.38
2022-10-07T15:55:07.560Z,64.83
2022-10-07T15:57:38.901Z,65.27
2022-10-07T16:00:06.884Z,65.86
2022-10-07T16:02:36.346Z,66.22
2022-10-07T16:05:04.401Z,66.79
2022-10-07T16:07:40.341Z,67.40
2022-10-07T16:10:13.443Z,68.43
2022-10-07T16:12:42.677Z,68.46
2022-10-07T16:15:09.702Z,69.48
2022-10-07T16:17:36.510Z,69.85
2022-10-07T16:20:11.259Z,71.04
2022-10-07T16:22:44.671Z,71.88
2022-10-07T16:25:12.865Z,73.65
2022-10-07T16:28:17.909Z,74.68
2022-10-07T16:30:50.355Z,74.17
2022-10-07T16:33:23.284Z,74.43
2022-10-07T16:35:50.216Z,74.49
2022-10-07T16:38:19.030Z,75.88
2022-10-07T16:40:51.624Z,77.88
2022-10-07T16:43:18.486Z,78.78
2022-10-07T16:45:54.372Z,79.83
2022-10-07T16:48:23.282Z,80.46
2022-10-07T16:50:51.172Z,79.85
2022-10-07T16:53:18.045Z,79.77
2022-10-07T16:55:49.022Z,80.17
2022-10-07T16:58:16.896Z,79.61
2022-10-07T17:00:43.876Z,79.39
2022-10-07T17:03:11.771Z,78.64
2022-10-07T17:05:39.526Z,79.82
2022-10-07T17:08:08.399Z,80.43
2022-10-07T17:10:35.230Z,81.25
2022-10-07T17:13:04.491Z,81.46
2022-10-07T17:15:33.590Z,82.33
2022-10-07T17:18:05.451Z,83.03
2022-10-07T17:20:33.306Z,83.63
2022-10-07T17:23:04.457Z,84.41
2022-10-07T17:25:31.421Z,84.06
2022-10-07T17:27:59.406Z,83.92
2022-10-07T17:30:26.401Z,85.05
2022-10-07T17:32:55.335Z,85.49
2022-10-07T17:35:22.308Z,85.03
2022-10-07T17:37:50.936Z,85.31
2022-10-07T17:40:43.824Z,84.63
2022-10-07T17:43:10.586Z,83.84
2022-10-07T17:45:38.067Z,84.53
2022-10-07T17:48:10.444Z,84.68
2022-10-07T17:50:39.433Z,85.69
2022-10-07T17:53:07.758Z,85.56
2022-10-07T17:55:34.816Z,85.52
2022-10-07T17:58:12.019Z,85.19
2022-10-07T18:00:38.929Z,85.17
2022-10-07T18:03:13.439Z,85.38
2022-10-07T18:05:40.286Z,85.80
2022-10-07T18:08:16.361Z,85.87
2022-10-07T18:10:45.306Z,85.19
2022-10-07T18:13:32.818Z,84.72
2022-10-07T18:16:04.927Z,84.99
2022-10-07T18:18:33.895Z,85.09
2022-10-07T18:21:04.834Z,85.69
2022-10-07T18:23:33.676Z,86.00
2022-10-07T18:26:03.600Z,86.05
2022-10-07T18:28:34.873Z,85.36
2022-10-07T18:31:11.496Z,84.73
2022-10-07T18:33:49.149Z,85.46
2022-10-07T18:36:25.432Z,86.13
2022-10-07T18:38:52.692Z,86.44
2022-10-07T18:41:19.886Z,86.34
2022-10-07T18:43:51.051Z,87.54
2022-10-07T18:46:28.762Z,87.38
2022-10-07T18:48:59.181Z,87.88
2022-10-07T18:51:34.243Z,88.81
2022-10-07T18:54:02.176Z,89.40
2022-10-07T18:56:41.509Z,88.61
2022-10-07T18:59:10.518Z,88.32
2022-10-07T19:01:40.820Z,88.24
2022-10-07T19:04:08.934Z,87.83
2022-10-07T19:06:44.132Z,87.68
2022-10-07T19:09:14.913Z,87.91
2022-10-07T19:11:42.712Z,87.40
2022-10-07T19:14:13.538Z,87.45
2022-10-07T19:16:44.578Z,87.24
2022-10-07T19:19:17.807Z,87.60
2022-10-07T19:21:48.033Z,87.49
2022-10-07T19:24:16.332Z,87.97
2022-10-07T19:26:45.172Z,89.20
2022-10-07T19:29:13.466Z,89.53
2022-10-07T19:31:42.830Z,90.63
2022-10-07T19:34:14.036Z,90.24
2022-10-07T19:36:47.386Z,89.94
2022-10-07T19:39:19.872Z,90.51
2022-10-07T19:41:53.129Z,91.55
2022-10-07T19:44:20.133Z,91.58
2022-10-07T19:46:54.595Z,91.08
2022-10-07T19:49:22.506Z,90.96
2022-10-07T19:51:49.729Z,90.80
2022-10-07T19:54:16.690Z,91.37
2022-10-07T19:56:45.904Z,91.84
2022-10-07T19:59:30.146Z,91.52
2022-10-07T20:02:00.967Z,91.76
2022-10-07T20:04:28.286Z,92.06
2022-10-07T20:06:59.492Z,91.67
2022-10-07T20:09:27.953Z,91.71
2022-10-07T20:11:56.614Z,91.38
2022-10-07T20:14:23.658Z,91.18
2022-10-07T20:16:51.786Z,90.67
2022-10-07T20:19:19.832Z,90.09
2022-10-07T20:22:06.946Z,89.84
2022-10-07T20:24:34.816Z,89.58
2022-10-07T20:27:09.248Z,89.39
2022-10-07T20:29:56.106Z,89.09
2022-10-07T20:32:23.819Z,88.75
2022-10-07T20:34:52.576Z,88.67
2022-10-07T20:37:26.596Z,88.68
2022-10-07T20:40:13.508Z,88.71
2022-10-07T20:42:46.668Z,88.57
2022-10-07T20:45:13.838Z,88.34
2022-10-07T20:47:40.791Z,88.14
2022-10-07T20:50:08.944Z,88.08
2022-10-07T20:52:36.821Z,88.12
2022-10-07T20:55:04.044Z,88.34
2022-10-07T20:57:38.074Z,88.17
2022-10-07T21:00:13.053Z,88.33
2022-10-07T21:02:41.330Z,89.28
2022-10-07T21:05:14.338Z,89.46
2022-10-07T21:07:43.133Z,89.43
2022-10-07T21:10:13.209Z,89.52
2022-10-07T21:12:41.185Z,89.64
2022-10-07T21:15:10.173Z,89.59
2022-10-07T21:17:41.384Z,89.58
2022-10-07T21:20:34.986Z,89.81
2022-10-07T21:23:02.888Z,89.67
2022-10-07T21:25:32.965Z,89.84
2022-10-07T21:28:00.552Z,89.59
2022-10-07T21:30:33.586Z,89.06
2022-10-07T21:33:19.256Z,89.04
2022-10-07T21:35:47.794Z,89.54
2022-10-07T21:38:15.677Z,89.45
2022-10-07T21:40:48.526Z,89.07
2022-10-07T21:43:15.526Z,89.01
2022-10-07T21:45:44.722Z,89.49
2022-10-07T21:48:13.728Z,89.74
2022-10-07T21:50:42.540Z,89.36
2022-10-07T21:53:34.010Z,89.60
2022-10-07T21:56:04.941Z,90.20
2022-10-07T21:58:36.260Z,90.01
2022-10-07T22:01:08.821Z,89.66
2022-10-07T22:03:36.721Z,90.27
2022-10-07T22:06:09.511Z,90.95
2022-10-07T22:08:41.389Z,90.73
2022-10-07T22:11:23.696Z,92.14
2022-10-07T22:13:56.573Z,92.52
2022-10-07T22:16:57.651Z,92.46
2022-10-07T22:19:36.552Z,91.78
2022-10-07T22:22:03.707Z,91.74
2022-10-07T22:24:32.782Z,92.41
2022-10-07T22:27:01.692Z,93.03
2022-10-07T22:29:30.605Z,93.45
2022-10-07T22:31:58.551Z,94.11
2022-10-07T22:34:56.345Z,94.33
2022-10-07T22:37:32.194Z,94.34
2022-10-07T22:39:59.077Z,94.49
2022-10-07T22:42:26.459Z,94.28
2022-10-07T22:44:53.277Z,94.38
2022-10-07T22:47:21.426Z,95.01
2022-10-07T22:49:48.762Z,95.66
2022-10-07T22:52:16.709Z,97.46
2022-10-07T22:54:44.707Z,97.91
2022-10-07T22:57:11.562Z,97.45
2022-10-07T22:59:39.233Z,98.33
2022-10-07T23:02:11.234Z,99.75
2022-10-07T23:04:39.070Z,99.51
2022-10-07T23:07:18.264Z,98.76
2022-10-07T23:09:52.926Z,99.65
2022-10-07T23:12:19.849Z,99.78
2022-10-07T23:14:46.827Z,99.03
2022-10-07T23:17:14.665Z,99.03
2022-10-07T23:19:42.772Z,99.10
2022-10-07T23:22:10.732Z,100.00
2022-10-07T23:24:37.631Z,100.00
2022-10-07T23:27:07.481Z,100.00
2022-10-07T23:29:34.458Z,100.00
2022-10-07T23:32:02.496Z,100.00
2022-10-07T23:34:41.653Z,100.00
2022-10-07T23:37:25.455Z,100.00
2022-10-07T23:39:52.438Z,100.00
2022-10-07T23:42:20.757Z,98.81
2022-10-07T23:44:47.663Z,99.60
2022-10-07T23:47:24.863Z,100.00
2022-10-07T23:49:55.736Z,100.00
2022-10-07T23:52:29.454Z,100.00
2022-10-07T23:54:59.511Z,100.00
2022-10-07T23:57:26.592Z,100.00
2022-10-07T23:59:55.432Z,100.00
